M/V Panforce — D5AG6 — position and weather

sailwx.info

Track history (hours):
 
Tides and Currents Weather Stations Pressure Air Temp Water Temp Dewpoint Dewpoint Depression Visibility Wind Speed Wind Dir Waves Ship Positions

M/V Panforce

Last reported at 2018-May-26 17:28 UTC. Time now 2018-Jun-22 05:35 UTC.
Position N 09°13' W 079°55'.
Warning: this ship's position is 26 days out of date.

Length 169 m; draft 8 m.

Type: Cargo ship. MMSI: 636015371.

Date/timePositionNaut miles runAvg speedWind from/ knotsBaromVisibWave heightAir tempDewpointWater temp
2018-May-26 17:28N 09°13' W 079°55'2 5.3
2018-May-26 17:00N 09°16' W 079°55'1 1.5
2018-May-26 16:30N 09°16' W 079°55'0 0.4
2018-May-26 16:00N 09°16' W 079°55'0 0.6
2018-May-26 15:30N 09°17' W 079°55'0 0.6
2018-May-26 15:00N 09°17' W 079°55'1 2.4
2018-May-26 14:30N 09°18' W 079°55'2 4.5
2018-May-26 14:00N 09°21' W 079°55'2 4.3
2018-May-26 13:30N 09°23' W 079°56'0 0.1
2018-May-26 13:00N 09°23' W 079°56'0 0.0
2018-May-26 12:27N 09°23' W 079°56'0 0.0
2018-May-26 12:00N 09°23' W 079°56'0 0.0
2018-May-26 11:30N 09°23' W 079°56'0 0.0
2018-May-26 11:00N 09°23' W 079°56'0 0.0
2018-May-26 10:30N 09°23' W 079°56'0 0.0
2018-May-26 10:00N 09°23' W 079°56'0 0.0
2018-May-26 09:30N 09°23' W 079°56'0 0.0
2018-May-26 09:00N 09°23' W 079°56'0 0.0
2018-May-26 08:30N 09°23' W 079°56'0 0.0
2018-May-26 08:00N 09°23' W 079°56'0 0.0
2018-May-26 07:30N 09°23' W 079°56'0 0.0
2018-May-26 07:00N 09°23' W 079°56'0 0.0
2018-May-26 06:30N 09°23' W 079°56'0 0.0
2018-May-26 05:30N 09°23' W 079°56'0 0.0
2018-May-26 05:00N 09°23' W 079°56'0 0.0
2018-May-26 04:30N 09°23' W 079°56'0 0.0
2018-May-26 04:00N 09°23' W 079°56'0 0.0
2018-May-26 03:30N 09°23' W 079°56'0 0.0
2018-May-26 03:00N 09°23' W 079°56'0 0.0
2018-May-26 02:30N 09°23' W 079°56'0 0.1
2018-May-26 02:01N 09°23' W 079°56'1 2.6
2018-May-26 01:30N 09°24' W 079°55'2 4.9
2018-May-26 01:01N 09°26' W 079°55'3 5.2
2018-May-26 00:30N 09°28' W 079°57'0 0.1
2018-May-25 21:17N 09°28' W 079°57'0 0.4
2018-May-25 20:59N 09°28' W 079°57'2 3.8
2018-May-25 20:31N 09°29' W 079°55'  
Track history (hours):
 
Tides and Currents Weather Stations Pressure Air Temp Water Temp Dewpoint Dewpoint Depression Visibility Wind Speed Wind Dir Waves Ship Positions

M/V Panforce

Last reported at 2018-May-26 17:28 UTC. Time now 2018-Jun-22 05:35 UTC.
Position N 09°13' W 079°55'.
Warning: this ship's position is 26 days out of date.

Length 169 m; draft 8 m.

Type: Cargo ship. MMSI: 636015371.

Date/timePositionNaut miles runAvg speedWind from/ knotsBaromVisibWave heightAir tempDewpointWater temp
2018-May-26 17:28N 09°13' W 079°55'2 5.3
2018-May-26 17:00N 09°16' W 079°55'1 1.5
2018-May-26 16:30N 09°16' W 079°55'0 0.4
2018-May-26 16:00N 09°16' W 079°55'0 0.6
2018-May-26 15:30N 09°17' W 079°55'0 0.6
2018-May-26 15:00N 09°17' W 079°55'1 2.4
2018-May-26 14:30N 09°18' W 079°55'2 4.5
2018-May-26 14:00N 09°21' W 079°55'2 4.3
2018-May-26 13:30N 09°23' W 079°56'0 0.1
2018-May-26 13:00N 09°23' W 079°56'0 0.0
2018-May-26 12:27N 09°23' W 079°56'0 0.0
2018-May-26 12:00N 09°23' W 079°56'0 0.0
2018-May-26 11:30N 09°23' W 079°56'0 0.0
2018-May-26 11:00N 09°23' W 079°56'0 0.0
2018-May-26 10:30N 09°23' W 079°56'0 0.0
2018-May-26 10:00N 09°23' W 079°56'0 0.0
2018-May-26 09:30N 09°23' W 079°56'0 0.0
2018-May-26 09:00N 09°23' W 079°56'0 0.0
2018-May-26 08:30N 09°23' W 079°56'0 0.0
2018-May-26 08:00N 09°23' W 079°56'0 0.0
2018-May-26 07:30N 09°23' W 079°56'0 0.0
2018-May-26 07:00N 09°23' W 079°56'0 0.0
2018-May-26 06:30N 09°23' W 079°56'0 0.0
2018-May-26 05:30N 09°23' W 079°56'0 0.0
2018-May-26 05:00N 09°23' W 079°56'0 0.0
2018-May-26 04:30N 09°23' W 079°56'0 0.0
2018-May-26 04:00N 09°23' W 079°56'0 0.0
2018-May-26 03:30N 09°23' W 079°56'0 0.0
2018-May-26 03:00N 09°23' W 079°56'0 0.0
2018-May-26 02:30N 09°23' W 079°56'0 0.1
2018-May-26 02:01N 09°23' W 079°56'1 2.6
2018-May-26 01:30N 09°24' W 079°55'2 4.9
2018-May-26 01:01N 09°26' W 079°55'3 5.2
2018-May-26 00:30N 09°28' W 079°57'0 0.1
2018-May-25 21:17N 09°28' W 079°57'0 0.4
2018-May-25 20:59N 09°28' W 079°57'2 3.8
2018-May-25 20:31N 09°29' W 079°55'  

Dump ship's entire track history